Aviation Digital Data Service (ADDS)

Output produced by METARs form (1805 UTC 19 October 2017)
found at http://www.aviationweather.gov/adds/metars/
 
EBBE 191755Z AUTO 14005KT 9999 FEW050/// SCT065/// BKN130/// 19/13 Q1008 BLU
TAF EBBE 191541Z 1919/2007 18006KT 9999 BKN030 BKN055 
     TEMPO 2000/2006 5000 -RA BKN050 BKN070 
     BECMG 2005/2007 24015KT BKN018 BKN070
       
EBBR 191750Z 16006KT CAVOK 19/14 Q1007 NOSIG
TAF EBBR 191700Z 1918/2024 18012KT 9999 FEW025 
     TEMPO 1923/2005 18015G25KT 
     TEMPO 2002/2006 4000 SHRA RA BKN014 
     BECMG 2005/2007 23012KT
       
EBCI 191720Z 17006KT 140V200 9999 FEW045 20/13 Q1008 NOSIG
TAF EBCI 191700Z 1918/2024 18012KT 9999 FEW025 
     TEMPO 1923/2005 18015G25KT 
     TEMPO 2002/2006 4000 SHRA RA SCT008 BKN012 
     BECMG 2005/2007 23012KT
       
EBCV 191755Z AUTO 18006KT 9999 FEW047/// OVC067/// 19/14 Q1007 BLU
TAF EBCV 191541Z 1919/2007 18010KT 9999 FEW030 SCT050 BKN120 
     PROB40 
     TEMPO 1915/1922 18010G20KT 8000 -SHRA SCT025 BKN040 
     BECMG 1922/2000 6000 -RA SCT016 BKN025 
     TEMPO 1923/2005 17012G25KT 4000 -RADZ SCT008 BKN012 BY EBWM
       
EBAW 191750Z 16006KT CAVOK 20/13 Q1007 NOSIG
TAF EBAW 191700Z 1918/2003 18012KT 9999 FEW025 
     TEMPO 2001/2003 18015G25KT 4000 SHRA RA BKN014
       
EBFS 191755Z AUTO 16006KT 9999 BKN160/// 18/11 Q1009 BLU
TAF EBFS 191541Z 1919/2007 18008KT 9999 FEW030 SCT040 BKN080 
     BECMG 2002/2004 18010G24KT 6000 -RA SCT015 BKN020 
     TEMPO 2003/2007 22013G28KT 4000 RA SHRA SCT010TCU BKN013 
     PROB40 
     TEMPO 2004/2006 3000 RADZ SCT006 BKN010
       
EBBL 191755Z AUTO 15003KT 9999 OVC052/// 19/13 Q1009 BLU
TAF EBBL 191541Z 1919/2007 16005KT 9999 BKN040 
     BECMG 2002/2004 BKN025
       
EBFN 191755Z AUTO 17008KT 9999 BKN055/// OVC074/// 18/14 Q1005 BLU
TAF EBFN 191716Z 1917/2007 18010KT 9999 FEW030 SCT060 BKN180 
     BECMG 2000/2002 20015G25KT 9999 FEW020 BKN040 
     TEMPO 2002/2007 5000 -RA FEW015 BKN020 
     PROB30 
     BECMG 2003/2007 4000 RA SCT014
       
EBLG 191750Z 16006KT CAVOK 18/11 Q1009 NOSIG
TAF EBLG 191700Z 1918/2024 18012KT 9999 FEW025 
     TEMPO 2003/2007 18015G25KT 4000 RA SCT008 BKN012 
     BECMG 2006/2008 23012KT
       
EBOS 191750Z 18007KT 9999 FEW035 17/13 Q1006 NOSIG
TAF EBOS 191700Z 1918/2024 18015KT 9999 FEW025 SCT080 
     TEMPO 1923/2017 18015G25KT 
     TEMPO 2002/2016 19017G29KT 4000 RA SHRA BKN014 
     BECMG 2010/2012 25014KT